Date,TemperatureHighF,TemperatureAvgF,TemperatureLowF,DewpointHighF,DewpointAvgF,DewpointLowF,HumidityHigh,HumidityAvg,HumidityLow,PressureMaxIn,PressureMinIn,WindSpeedMaxMPH,WindSpeedAvgMPH,GustSpeedMaxMPH,PrecipitationSumIn
2013-1-1,26.0,20.2,17.0,-99.9,-99.9,-99.9,0,0,100,0.00,40.00,14,5,14,0.00
2013-1-2,20.0,18.0,16.0,-99.9,-99.9,-99.9,0,0,100,0.00,40.00,39,18,39,0.00
2013-1-3,22.0,18.8,14.0,-99.9,-99.9,-99.9,0,0,100,0.00,40.00,56,36,56,0.00
2013-1-4,25.0,21.9,19.0,-99.9,-99.9,-99.9,0,0,100,0.00,40.00,45,27,45,0.00
2013-1-5,25.0,20.5,15.0,-99.9,-99.9,-99.9,0,0,100,0.00,40.00,43,26,52,0.00
2013-1-6,33.0,27.8,25.0,-99.9,-99.9,-99.9,0,0,100,0.00,40.00,33,22,37,0.00
2013-1-7,25.0,23.5,22.0,-99.9,-99.9,-99.9,0,0,100,0.00,40.00,47,32,52,0.00
2013-1-8,36.0,31.2,28.0,-99.9,-99.9,-99.9,0,0,100,0.00,40.00,40,20,45,0.00
2013-1-9,41.0,37.7,30.0,-99.9,-99.9,-99.9,0,0,100,0.00,40.00,30,18,43,0.00
2013-1-10,32.0,28.1,26.0,-99.9,-99.9,-99.9,0,0,100,0.00,40.00,15,8,18,0.00
2013-1-11,25.0,22.2,20.0,-99.9,-99.9,-99.9,0,0,100,0.00,40.00,20,12,20,0.00
2013-1-12,25.0,14.4,6.0,-99.9,-99.9,-99.9,0,0,100,0.00,40.00,4,1,4,0.00
2013-1-13,24.0,17.8,12.0,-99.9,-99.9,-99.9,0,0,100,0.00,40.00,7,2,8,0.00
2013-1-14,21.0,18.1,15.0,-99.9,-99.9,-99.9,0,0,100,0.00,40.00,31,12,31,0.00
2013-1-15,26.0,18.4,14.0,-99.9,-99.9,-99.9,0,0,100,0.00,40.00,4,2,6,0.00
2013-1-16,21.0,19.1,17.0,-99.9,-99.9,-99.9,0,0,100,0.00,40.00,38,19,43,0.00
2013-1-17,23.0,18.9,16.0,-99.9,-99.9,-99.9,0,0,100,0.00,40.00,42,29,45,0.00
2013-1-18,23.0,19.5,18.0,-99.9,-99.9,-99.9,0,0,100,0.00,40.00,55,37,55,0.00
2013-1-19,24.0,20.4,18.0,-99.9,-99.9,-99.9,0,0,100,0.00,40.00,41,28,42,0.00
2013-1-20,29.0,21.8,15.0,-99.9,-99.9,-99.9,0,0,100,0.00,40.00,33,7,37,0.00
2013-1-21,25.0,21.7,18.0,-99.9,-99.9,-99.9,0,0,100,0.00,40.00,52,35,53,0.00
2013-1-22,29.0,24.4,20.0,-99.9,-99.9,-99.9,0,0,100,0.00,40.00,57,37,57,0.00
2013-1-23,35.0,28.8,25.0,-99.9,-99.9,-99.9,0,0,100,0.00,40.00,61,34,61,0.00
2013-1-24,39.0,35.2,31.0,-99.9,-99.9,-99.9,0,0,100,0.00,40.00,35,17,39,0.00
2013-1-25,40.0,37.6,36.0,-99.9,-99.9,-99.9,0,0,100,0.00,40.00,32,23,41,0.00
2013-1-26,42.0,37.3,32.0,-99.9,-99.9,-99.9,0,0,100,0.00,40.00,28,6,30,0.00
2013-1-27,36.0,32.5,29.0,-99.9,-99.9,-99.9,0,0,100,0.00,40.00,15,4,18,0.00
2013-1-28,35.0,30.7,29.0,-99.9,-99.9,-99.9,0,0,100,0.00,40.00,12,6,18,0.00
2013-1-29,38.0,34.5,32.0,-99.9,-99.9,-99.9,0,0,100,0.00,40.00,8,3,8,0.00
2013-1-30,44.0,40.4,36.0,-99.9,-99.9,-99.9,0,0,100,0.00,40.00,9,3,12,0.00
2013-1-31,47.0,41.3,38.0,-99.9,-99.9,-99.9,0,0,100,0.00,40.00,13,5,19,0.00
2013-2-1,49.0,40.2,32.0,-99.9,-99.9,-99.9,0,0,100,0.00,40.00,10,3,13,0.00
2013-2-2,40.0,33.4,26.0,-99.9,-99.9,-99.9,0,0,100,0.00,40.00,24,9,34,0.00
2013-2-3,37.0,35.0,33.0,-99.9,-99.9,-99.9,0,0,100,0.00,40.00,34,22,39,0.00
2013-2-4,38.0,35.4,32.0,-99.9,-99.9,-99.9,0,0,100,0.00,40.00,35,20,41,0.00
2013-2-5,43.0,37.3,34.0,-99.9,-99.9,-99.9,0,0,100,0.00,40.00,45,20,45,0.00
2013-2-6,44.0,37.7,35.0,-99.9,-99.9,-99.9,0,0,100,0.00,40.00,37,10,37,0.00
2013-2-7,38.0,34.4,29.0,-99.9,-99.9,-99.9,0,0,100,0.00,40.00,30,9,30,0.00
2013-2-8,38.0,32.0,26.0,-99.9,-99.9,-99.9,0,0,100,0.00,40.00,23,12,25,0.00
2013-2-9,40.0,33.6,29.0,-99.9,-99.9,-99.9,0,0,100,0.00,40.00,26,14,26,0.00
2013-2-10,40.0,34.0,28.0,-99.9,-99.9,-99.9,0,0,100,0.00,40.00,12,6,14,0.00
2013-2-11,47.0,34.5,22.0,-99.9,-99.9,-99.9,0,0,100,0.00,40.00,7,2,7,0.00
2013-2-12,51.0,39.7,33.0,-99.9,-99.9,-99.9,0,0,100,0.00,40.00,11,4,14,0.00
2013-2-13,49.0,41.4,37.0,-99.9,-99.9,-99.9,0,0,100,0.00,40.00,16,5,24,0.00
2013-2-14,49.0,40.2,32.0,-99.9,-99.9,-99.9,0,0,100,0.00,40.00,6,3,9,0.00
2013-2-15,47.0,40.8,32.0,-99.9,-99.9,-99.9,0,0,100,0.00,40.00,30,13,32,0.00
2013-2-16,47.0,41.0,36.0,-99.9,-99.9,-99.9,0,0,100,0.00,40.00,39,18,41,0.00
2013-2-17,40.0,34.2,27.0,-99.9,-99.9,-99.9,0,0,100,0.00,40.00,16,5,16,0.00
2013-2-18,40.0,34.0,24.0,-99.9,-99.9,-99.9,0,0,100,0.00,40.00,34,12,39,0.00
2013-2-19,40.0,34.5,29.0,-99.9,-99.9,-99.9,0,0,100,0.00,40.00,20,7,21,0.00
2013-2-20,40.0,33.1,28.0,-99.9,-99.9,-99.9,0,0,100,0.00,40.00,12,4,13,0.00
2013-2-21,39.0,33.2,29.0,-99.9,-99.9,-99.9,0,0,100,0.00,40.00,9,4,12,0.00
2013-2-22,37.0,33.5,30.0,-99.9,-99.9,-99.9,0,0,100,0.00,40.00,21,12,31,0.00
2013-2-23,41.0,32.6,29.0,-99.9,-99.9,-99.9,0,0,100,0.00,40.00,13,4,15,0.00
2013-2-24,39.0,32.8,25.0,-99.9,-99.9,-99.9,0,0,100,0.00,40.00,25,9,28,0.00
2013-2-25,40.0,34.5,29.0,-99.9,-99.9,-99.9,0,0,100,0.00,40.00,33,13,33,0.00
2013-2-26,40.0,34.2,29.0,-99.9,-99.9,-99.9,0,0,100,0.00,40.00,21,7,26,0.00
2013-2-27,42.0,35.6,30.0,-99.9,-99.9,-99.9,0,0,100,0.00,40.00,31,22,35,0.00
2013-2-28,39.0,35.9,33.0,-99.9,-99.9,-99.9,0,0,100,0.00,40.00,32,17,32,0.00
2013-3-1,44.0,39.9,35.0,-99.9,-99.9,-99.9,0,0,100,0.00,40.00,36,23,40,0.00
2013-3-2,50.0,45.0,42.0,-99.9,-99.9,-99.9,0,0,100,0.00,40.00,41,21,42,0.00
2013-3-3,43.0,36.2,27.0,-99.9,-99.9,-99.9,0,0,100,0.00,40.00,23,9,24,0.00
2013-3-4,43.0,30.8,20.0,-99.9,-99.9,-99.9,0,0,100,0.00,40.00,21,7,28,0.00
2013-3-5,43.0,39.9,36.0,-99.9,-99.9,-99.9,0,0,100,0.00,40.00,34,18,37,0.00
2013-3-6,47.0,40.4,33.0,-99.9,-99.9,-99.9,0,0,100,0.00,40.00,29,12,31,0.00
2013-3-7,47.0,37.4,29.0,-99.9,-99.9,-99.9,0,0,100,0.00,40.00,12,5,19,0.00
2013-3-8,49.0,34.9,25.0,-99.9,-99.9,-99.9,0,0,100,0.00,40.00,16,5,19,0.00
2013-3-9,50.0,36.4,26.0,-99.9,-99.9,-99.9,0,0,100,0.00,40.00,12,3,21,0.00
2013-3-10,53.0,39.8,25.0,-99.9,-99.9,-99.9,0,0,100,0.00,40.00,5,2,12,0.00
2013-3-11,51.0,43.9,40.0,-99.9,-99.9,-99.9,0,0,100,0.00,40.00,6,2,9,0.00
2013-3-12,58.0,48.5,40.0,-99.9,-99.9,-99.9,0,0,100,0.00,40.00,26,13,27,0.00
2013-3-13,61.0,53.7,44.0,-99.9,-99.9,-99.9,0,0,100,0.00,40.00,23,14,29,0.00
2013-3-14,62.0,52.6,38.0,-99.9,-99.9,-99.9,0,0,100,0.00,40.00,29,12,29,0.00
2013-3-15,56.0,49.8,43.0,-99.9,-99.9,-99.9,0,0,100,0.00,40.00,12,5,15,0.00
2013-3-16,52.0,43.3,32.0,-99.9,-99.9,-99.9,0,0,100,0.00,40.00,12,4,14,0.00
2013-3-17,40.0,35.1,30.0,-99.9,-99.9,-99.9,0,0,100,0.00,40.00,23,10,27,0.00
2013-3-18,47.0,37.9,32.0,-99.9,-99.9,-99.9,0,0,100,0.00,40.00,11,3,14,0.00
2013-3-19,51.0,39.3,25.0,-99.9,-99.9,-99.9,0,0,100,0.00,40.00,27,11,28,0.00
2013-3-20,52.0,43.2,34.0,-99.9,-99.9,-99.9,0,0,100,0.00,40.00,25,11,41,0.00
2013-3-21,38.0,33.6,30.0,-99.9,-99.9,-99.9,0,0,100,0.00,40.00,21,8,29,0.00
2013-3-22,36.0,30.9,26.0,-99.9,-99.9,-99.9,0,0,100,0.00,40.00,17,7,25,0.00
2013-3-23,43.0,31.1,23.0,-99.9,-99.9,-99.9,0,0,100,0.00,40.00,6,3,9,0.00
2013-3-24,45.0,33.1,21.0,-99.9,-99.9,-99.9,0,0,100,0.00,40.00,12,4,14,0.00
2013-3-25,49.0,43.0,38.0,-99.9,-99.9,-99.9,0,0,100,0.00,40.00,24,13,26,0.00
2013-3-26,57.0,47.6,40.0,-99.9,-99.9,-99.9,0,0,100,0.00,40.00,13,4,13,0.00
2013-3-27,55.0,47.0,38.0,-99.9,-99.9,-99.9,0,0,100,0.00,40.00,16,6,21,0.00
2013-3-28,62.0,48.0,39.0,-99.9,-99.9,-99.9,0,0,100,0.00,40.00,10,3,12,0.00
2013-3-29,60.0,48.6,43.0,-99.9,-99.9,-99.9,0,0,100,0.00,40.00,8,2,8,0.00
2013-3-30,65.0,47.2,35.0,-99.9,-99.9,-99.9,0,0,100,0.00,40.00,6,2,6,0.00
2013-3-31,69.0,48.8,33.0,-99.9,-99.9,-99.9,0,0,100,0.00,40.00,6,2,9,0.00
2013-4-1,67.0,50.6,37.0,-99.9,-99.9,-99.9,0,0,100,0.00,40.00,18,5,19,0.00
2013-4-2,62.0,51.7,40.0,-99.9,-99.9,-99.9,0,0,100,0.00,40.00,16,5,16,0.00
2013-4-3,66.0,52.6,41.0,-99.9,-99.9,-99.9,0,0,100,0.00,40.00,7,-40,7,0.00
2013-4-4,62.0,50.7,43.0,-99.9,-99.9,-99.9,0,0,100,0.00,40.00,21,6,30,0.00
2013-4-5,57.0,49.1,43.0,-99.9,-99.9,-99.9,0,0,100,0.00,40.00,10,4,13,0.00
2013-4-6,51.0,45.6,41.0,-99.9,-99.9,-99.9,0,0,100,0.00,40.00,17,5,17,0.00
2013-4-7,51.0,43.2,34.0,-99.9,-99.9,-99.9,0,0,100,0.00,40.00,20,8,31,0.00
2013-4-8,43.0,38.2,32.0,-99.9,-99.9,-99.9,0,0,100,0.00,40.00,20,10,24,0.00
2013-4-9,53.0,43.6,36.0,-99.9,-99.9,-99.9,0,0,100,0.00,40.00,23,12,23,0.00
2013-4-10,54.0,45.1,38.0,-99.9,-99.9,-99.9,0,0,100,0.00,40.00,28,8,32,0.00
2013-4-11,47.0,40.0,32.0,-99.9,-99.9,-99.9,0,0,100,0.00,40.00,12,6,17,0.00
2013-4-12,56.0,44.0,28.0,-99.9,-99.9,-99.9,0,0,100,0.00,40.00,15,6,22,0.00
2013-4-13,45.0,38.8,30.0,-99.9,-99.9,-99.9,0,0,100,0.00,40.00,26,11,34,0.00
2013-4-14,43.0,37.3,32.0,-99.9,-99.9,-99.9,0,0,100,0.00,40.00,13,4,13,0.00
2013-4-15,43.0,34.7,27.0,-99.9,-99.9,-99.9,0,0,100,0.00,40.00,23,10,25,0.00
2013-4-16,40.0,34.7,29.0,-99.9,-99.9,-99.9,0,0,100,0.00,40.00,24,13,26,0.00
2013-4-17,49.0,35.5,23.0,-99.9,-99.9,-99.9,0,0,100,0.00,40.00,22,6,22,0.00
2013-4-18,53.0,43.1,32.0,-99.9,-99.9,-99.9,0,0,100,0.00,40.00,8,2,8,0.00
2013-4-19,49.0,46.3,44.0,-99.9,-99.9,-99.9,0,0,100,0.00,40.00,12,2,14,0.00
2013-4-20,54.0,46.2,42.0,-99.9,-99.9,-99.9,0,0,100,0.00,40.00,11,4,16,0.00
2013-4-21,53.0,43.8,36.0,-99.9,-99.9,-99.9,0,0,100,0.00,40.00,16,5,24,0.00
2013-4-22,50.0,41.8,33.0,-99.9,-99.9,-99.9,0,0,100,0.00,40.00,19,11,23,0.00
2013-4-23,51.0,39.5,27.0,-99.9,-99.9,-99.9,0,0,100,0.00,40.00,10,4,13,0.00
2013-4-24,63.0,46.2,30.0,-99.9,-99.9,-99.9,0,0,100,0.00,40.00,16,4,23,0.00
2013-4-25,64.0,53.1,37.0,-99.9,-99.9,-99.9,0,0,100,0.00,40.00,16,5,20,0.00
2013-4-26,73.0,56.5,40.0,-99.9,-99.9,-99.9,0,0,100,0.00,40.00,8,2,8,0.00
2013-4-27,70.0,57.9,44.0,-99.9,-99.9,-99.9,0,0,100,0.00,40.00,21,6,23,0.00
2013-4-28,60.0,52.2,46.0,-99.9,-99.9,-99.9,0,0,100,0.00,40.00,14,4,18,0.00
2013-4-29,52.0,49.4,39.0,-99.9,-99.9,-99.9,0,0,100,0.00,40.00,32,10,35,0.00
2013-4-30,45.0,38.7,33.0,-99.9,-99.9,-99.9,0,0,100,0.00,40.00,17,10,23,0.00
2013-5-1,58.0,41.7,26.0,-99.9,-99.9,-99.9,0,0,100,0.00,40.00,6,2,7,0.00
2013-5-2,67.0,51.3,30.0,-99.9,-99.9,-99.9,0,0,100,0.00,40.00,18,7,23,0.00
2013-5-3,65.0,54.0,42.0,-99.9,-99.9,-99.9,0,0,100,0.00,40.00,18,6,20,0.00
2013-5-4,66.0,56.1,46.0,-99.9,-99.9,-99.9,0,0,100,0.00,40.00,17,8,21,0.00
2013-5-5,72.0,56.0,42.0,-99.9,-99.9,-99.9,0,0,100,0.00,40.00,10,3,10,0.00
2013-5-6,76.0,59.7,43.0,-99.9,-99.9,-99.9,0,0,100,0.00,40.00,19,4,23,0.00
2013-5-7,80.0,63.8,47.0,-99.9,-99.9,-99.9,0,0,100,0.00,40.00,18,6,18,0.00
2013-5-8,80.0,62.7,47.0,-99.9,-99.9,-99.9,0,0,100,0.00,40.00,16,3,16,0.00
2013-5-9,81.0,64.0,50.0,-99.9,-99.9,-99.9,0,0,100,0.00,40.00,12,4,14,0.00
2013-5-10,83.0,63.3,47.0,-99.9,-99.9,-99.9,0,0,100,0.00,40.00,8,3,8,0.00
2013-5-11,84.0,67.1,56.0,-99.9,-99.9,-99.9,0,0,100,0.00,40.00,8,2,8,0.00
2013-5-12,82.0,66.3,55.0,-99.9,-99.9,-99.9,0,0,100,0.00,40.00,11,2,16,0.00
2013-5-13,70.0,57.8,51.0,-99.9,-99.9,-99.9,0,0,100,0.00,40.00,21,5,29,0.00
2013-5-14,64.0,52.8,41.0,-99.9,-99.9,-99.9,0,0,100,0.00,40.00,12,4,14,0.00
2013-5-15,66.0,50.9,39.0,-99.9,-99.9,-99.9,0,0,100,0.00,40.00,18,5,18,0.00
2013-5-16,63.0,49.2,46.0,-99.9,-99.9,-99.9,0,0,100,0.00,40.00,13,4,14,0.00
2013-5-17,59.0,51.8,47.0,-99.9,-99.9,-99.9,0,0,100,0.00,40.00,15,6,18,0.00
2013-5-18,58.0,50.0,41.0,-99.9,-99.9,-99.9,0,0,100,0.00,40.00,13,5,15,0.00
2013-5-19,60.0,50.5,44.0,-99.9,-99.9,-99.9,0,0,100,0.00,40.00,18,8,18,0.00
2013-5-20,72.0,56.6,38.0,-99.9,-99.9,-99.9,0,0,100,0.00,40.00,9,3,12,0.00
2013-5-21,67.0,53.5,41.0,-99.9,-99.9,-99.9,0,0,100,0.00,40.00,28,12,34,0.00
2013-5-22,47.0,40.7,36.0,-99.9,-99.9,-99.9,0,0,100,0.00,40.00,6,2,12,0.00
2013-5-23,59.0,43.2,31.0,-99.9,-99.9,-99.9,0,0,100,0.00,40.00,11,4,13,0.00
2013-5-24,51.0,44.5,40.0,-99.9,-99.9,-99.9,0,0,100,0.00,40.00,8,3,11,0.00
2013-5-25,63.0,49.5,37.0,-99.9,-99.9,-99.9,0,0,100,0.00,40.00,10,3,10,0.00
2013-5-26,57.0,50.3,43.0,-99.9,-99.9,-99.9,0,0,100,0.00,40.00,14,4,15,0.00
2013-5-27,58.0,50.5,43.0,-99.9,-99.9,-99.9,0,0,100,0.00,40.00,18,7,21,0.00
2013-5-28,58.0,51.0,47.0,-99.9,-99.9,-99.9,0,0,100,0.00,40.00,14,5,14,0.00
2013-5-29,54.0,48.5,43.0,-99.9,-99.9,-99.9,0,0,100,0.00,40.00,11,2,13,0.00
2013-5-30,57.0,49.8,43.0,-99.9,-99.9,-99.9,0,0,100,0.00,40.00,14,6,17,0.00
2013-5-31,64.0,52.2,40.0,-99.9,-99.9,-99.9,0,0,100,0.00,40.00,9,4,12,0.00
2013-6-1,71.0,56.0,42.0,-99.9,-99.9,-99.9,0,0,100,0.00,40.00,8,3,15,0.00
2013-6-2,65.0,56.1,47.0,-99.9,-99.9,-99.9,0,0,100,0.00,40.00,19,7,23,0.00
2013-6-3,70.0,57.6,45.0,-99.9,-99.9,-99.9,0,0,100,0.00,40.00,15,5,15,0.00
2013-6-4,73.0,59.4,44.0,-99.9,-99.9,-99.9,0,0,100,0.00,40.00,15,4,16,0.00
2013-6-5,80.0,64.1,47.0,-99.9,-99.9,-99.9,0,0,100,0.00,40.00,8,3,8,0.00
2013-6-6,83.0,66.7,51.0,-99.9,-99.9,-99.9,0,0,100,0.00,40.00,9,-38,9,0.00
2013-6-7,78.0,65.7,58.0,-99.9,-99.9,-99.9,0,0,100,0.00,40.00,17,5,21,0.00
2013-6-8,78.0,65.0,51.0,-99.9,-99.9,-99.9,0,0,100,0.00,40.00,11,4,12,0.00
2013-6-9,77.0,64.7,51.0,-99.9,-99.9,-99.9,0,0,100,0.00,40.00,16,5,16,0.00
2013-6-10,76.0,60.4,47.0,-99.9,-99.9,-99.9,0,0,100,0.00,40.00,15,5,15,0.00
2013-6-11,67.0,56.6,48.0,-99.9,-99.9,-99.9,0,0,100,0.00,40.00,16,9,24,0.00
2013-6-12,65.0,53.4,43.0,-99.9,-99.9,-99.9,0,0,100,0.00,40.00,20,10,23,0.00
2013-6-13,62.0,52.0,43.0,-99.9,-99.9,-99.9,0,0,100,0.00,40.00,24,13,24,0.00
2013-6-14,72.0,57.2,46.0,-99.9,-99.9,-99.9,0,0,100,0.00,40.00,10,4,10,0.00
2013-6-15,80.0,62.5,43.0,-99.9,-99.9,-99.9,0,0,100,0.00,40.00,8,3,11,0.00
2013-6-16,83.0,67.0,51.0,-99.9,-99.9,-99.9,0,0,100,0.00,40.00,14,5,18,0.00
2013-6-17,80.0,66.3,55.0,-99.9,-99.9,-99.9,0,0,100,0.00,40.00,18,8,20,0.00
2013-6-18,65.0,56.6,51.0,-99.9,-99.9,-99.9,0,0,100,0.00,40.00,15,9,21,0.00
2013-6-19,53.0,45.8,42.0,-99.9,-99.9,-99.9,0,0,100,0.00,40.00,19,8,21,0.00
2013-6-20,58.0,50.0,45.0,-99.9,-99.9,-99.9,0,0,100,0.00,40.00,10,5,13,0.00
2013-6-22,71.0,62.5,51.0,-99.9,-99.9,-99.9,0,0,100,0.00,40.00,6,4,8,0.00
2013-6-23,70.0,59.0,48.0,-99.9,-99.9,-99.9,0,0,100,0.00,40.00,9,3,12,0.00
2013-6-24,62.0,57.4,51.0,-99.9,-99.9,-99.9,0,0,100,0.00,40.00,9,2,9,0.00
2013-6-25,63.0,57.8,51.0,-99.9,-99.9,-99.9,0,0,100,0.00,40.00,17,8,27,0.00
2013-6-26,67.0,61.2,58.0,-99.9,-99.9,-99.9,0,0,100,0.00,40.00,21,9,23,0.00
2013-6-27,80.0,64.7,54.0,-99.9,-99.9,-99.9,0,0,100,0.00,40.00,9,2,11,0.00
2013-6-28,87.0,72.4,58.0,-99.9,-99.9,-99.9,0,0,100,0.00,40.00,9,4,16,0.00
2013-6-29,83.0,74.2,67.0,-99.9,-99.9,-99.9,0,0,100,0.00,40.00,15,6,20,0.00
2013-6-30,88.0,74.3,61.0,-99.9,-99.9,-99.9,0,0,100,0.00,40.00,10,4,16,0.00
2013-7-1,92.0,78.7,65.0,-99.9,-99.9,-99.9,0,0,100,0.00,40.00,7,2,7,0.00
2013-7-2,93.0,79.6,69.0,-99.9,-99.9,-99.9,0,0,100,0.00,40.00,12,4,12,0.00
2013-7-3,86.0,77.1,69.0,-99.9,-99.9,-99.9,0,0,100,0.00,40.00,12,4,16,0.00
2013-7-4,81.0,70.5,58.0,-99.9,-99.9,-99.9,0,0,100,0.00,40.00,15,5,17,0.00
2013-7-5,76.0,65.1,52.0,-99.9,-99.9,-99.9,0,0,100,0.00,40.00,17,7,20,0.00
2013-7-6,80.0,59.4,48.0,-99.9,-99.9,-99.9,0,0,100,0.00,40.00,9,3,10,0.00
2013-7-7,84.0,69.3,54.0,-99.9,-99.9,-99.9,0,0,100,0.00,40.00,10,4,14,0.00
2013-7-8,80.0,67.1,59.0,-99.9,-99.9,-99.9,0,0,100,0.00,40.00,10,4,11,0.00
2013-7-9,87.0,71.3,51.0,-99.9,-99.9,-99.9,0,0,100,0.00,40.00,8,4,12,0.00
2013-7-10,87.0,71.8,58.0,-99.9,-99.9,-99.9,0,0,100,0.00,40.00,10,4,13,0.00
2013-7-11,80.0,67.9,59.0,-99.9,-99.9,-99.9,0,0,100,0.00,40.00,13,6,15,0.00
2013-7-12,79.0,64.3,52.0,-99.9,-99.9,-99.9,0,0,100,0.00,40.00,18,5,18,0.00
2013-7-13,77.0,63.9,48.0,-99.9,-99.9,-99.9,0,0,100,0.00,40.00,12,5,14,0.00
2013-7-14,85.0,68.6,54.0,-99.9,-99.9,-99.9,0,0,100,0.00,40.00,9,4,12,0.00
2013-7-15,83.0,68.9,54.0,-99.9,-99.9,-99.9,0,0,100,0.00,40.00,15,5,17,0.00
2013-7-16,89.0,71.4,57.0,-99.9,-99.9,-99.9,0,0,100,0.00,40.00,12,5,18,0.00
2013-7-17,87.0,73.4,61.0,-99.9,-99.9,-99.9,0,0,100,0.00,40.00,10,4,12,0.00
2013-7-18,91.0,76.7,56.0,-99.9,-99.9,-99.9,0,0,100,0.00,40.00,16,5,16,0.00
2013-7-19,91.0,74.0,59.0,-99.9,-99.9,-99.9,0,0,100,0.00,40.00,16,5,17,0.00
2013-7-20,90.0,72.1,54.0,-99.9,-99.9,-99.9,0,0,100,0.00,40.00,9,3,10,0.00
2013-7-21,91.0,72.2,52.0,-99.9,-99.9,-99.9,0,0,100,0.00,40.00,11,2,12,0.00
2013-7-22,88.0,73.8,54.0,-99.9,-99.9,-99.9,0,0,100,0.00,40.00,14,4,14,0.00
2013-7-23,91.0,71.1,51.0,-99.9,-99.9,-99.9,0,0,100,0.00,40.00,8,3,8,0.00
2013-7-24,91.0,74.1,58.0,-99.9,-99.9,-99.9,0,0,100,0.00,40.00,9,2,9,0.00
2013-7-25,93.0,76.0,61.0,-99.9,-99.9,-99.9,0,0,100,0.00,40.00,9,3,9,0.00
2013-7-26,93.0,71.8,56.0,-99.9,-99.9,-99.9,0,0,100,0.00,40.00,12,3,12,0.00
2013-7-27,83.0,73.2,63.0,-99.9,-99.9,-99.9,0,0,100,0.00,40.00,18,7,18,0.00
2013-7-28,82.0,67.2,54.0,-99.9,-99.9,-99.9,0,0,100,0.00,40.00,12,3,12,0.00
2013-7-29,85.0,66.4,50.0,-99.9,-99.9,-99.9,0,0,100,0.00,40.00,6,2,9,0.00
2013-7-30,86.0,72.5,60.0,-99.9,-99.9,-99.9,0,0,100,0.00,40.00,7,3,7,0.00
2013-7-31,83.0,69.3,56.0,-99.9,-99.9,-99.9,0,0,100,0.00,40.00,14,4,16,0.00
2013-8-1,78.0,63.1,54.0,-99.9,-99.9,-99.9,0,0,100,0.00,40.00,18,6,32,0.00
2013-8-2,73.0,62.0,54.0,-99.9,-99.9,-99.9,0,0,100,0.00,40.00,8,3,12,0.00
2013-8-3,78.0,64.5,51.0,-99.9,-99.9,-99.9,0,0,100,0.00,40.00,12,4,12,0.00
2013-8-4,86.0,68.7,52.0,-99.9,-99.9,-99.9,0,0,100,0.00,40.00,12,5,14,0.00
2013-8-5,86.0,70.4,58.0,-99.9,-99.9,-99.9,0,0,100,0.00,40.00,12,4,15,0.00
2013-8-6,91.0,72.5,52.0,-99.9,-99.9,-99.9,0,0,100,0.00,40.00,7,2,12,0.00
2013-8-7,89.0,73.9,58.0,-99.9,-99.9,-99.9,0,0,100,0.00,40.00,11,4,12,0.00
2013-8-8,87.0,72.2,62.0,-99.9,-99.9,-99.9,0,0,100,0.00,40.00,13,6,19,0.00
2013-8-9,90.0,75.9,65.0,-99.9,-99.9,-99.9,0,0,100,0.00,40.00,15,5,18,0.00
2013-8-10,83.0,69.4,58.0,-99.9,-99.9,-99.9,0,0,100,0.00,40.00,17,5,17,0.00
2013-8-11,81.0,66.5,56.0,-99.9,-99.9,-99.9,0,0,100,0.00,40.00,16,4,18,0.00
2013-8-12,81.0,67.3,57.0,-99.9,-99.9,-99.9,0,0,100,0.00,40.00,13,5,17,0.00
2013-8-13,88.0,70.0,55.0,-99.9,-99.9,-99.9,0,0,100,0.00,40.00,7,3,8,0.00
2013-8-14,92.0,72.2,57.0,-99.9,-99.9,-99.9,0,0,100,0.00,40.00,12,2,16,0.00
2013-8-15,89.0,67.7,60.0,-99.9,-99.9,-99.9,0,0,100,0.00,40.00,15,4,18,0.00
2013-8-16,87.0,71.6,59.0,-99.9,-99.9,-99.9,0,0,100,0.00,40.00,16,5,18,0.00
2013-8-17,84.0,67.4,58.0,-99.9,-99.9,-99.9,0,0,100,0.00,40.00,14,4,20,0.00
2013-8-18,84.0,69.0,57.0,-99.9,-99.9,-99.9,0,0,100,0.00,40.00,9,4,16,0.00
2013-8-19,84.0,66.3,54.0,-99.9,-99.9,-99.9,0,0,100,0.00,40.00,13,4,14,0.00
2013-8-20,82.0,68.6,56.0,-99.9,-99.9,-99.9,0,0,100,0.00,40.00,14,6,15,0.00
2013-8-21,86.0,68.8,51.0,-99.9,-99.9,-99.9,0,0,100,0.00,40.00,9,3,12,0.00
2013-8-22,90.0,69.2,60.0,-99.9,-99.9,-99.9,0,0,100,0.00,40.00,21,5,21,0.00
2013-8-23,81.0,66.5,54.0,-99.9,-99.9,-99.9,0,0,100,0.00,40.00,6,3,9,0.00
2013-8-24,82.0,64.1,54.0,-99.9,-99.9,-99.9,0,0,100,0.00,40.00,10,4,22,0.00
2013-8-25,83.0,66.9,55.0,-99.9,-99.9,-99.9,0,0,100,0.00,40.00,19,5,20,0.00
2013-8-26,83.0,64.2,48.0,-99.9,-99.9,-99.9,0,0,100,0.00,40.00,18,4,22,0.00
2013-8-27,70.0,58.8,54.0,-99.9,-99.9,-99.9,0,0,100,0.00,40.00,6,2,6,0.00
2013-8-28,90.0,79.2,65.0,-99.9,-99.9,-99.9,0,0,100,0.00,40.00,10,5,20,0.00
2013-8-29,88.0,69.6,59.0,-99.9,-99.9,-99.9,0,0,100,0.00,40.00,13,-40,16,0.00
2013-8-30,82.0,68.3,56.0,-99.9,-99.9,-99.9,0,0,100,0.00,40.00,10,4,14,0.00
2013-8-31,91.0,68.2,56.0,-99.9,-99.9,-99.9,0,0,100,0.00,40.00,8,3,9,0.00
2013-9-1,89.0,72.3,55.0,-99.9,-99.9,-99.9,0,0,100,0.00,40.00,9,3,11,0.00
2013-9-2,73.0,69.5,65.0,-99.9,-99.9,-99.9,0,0,100,0.00,40.00,23,6,23,0.00
2013-9-3,80.0,70.8,65.0,-99.9,-99.9,-99.9,0,0,100,0.00,40.00,22,13,26,0.00
2013-9-4,83.0,73.5,66.0,-99.9,-99.9,-99.9,0,0,100,0.00,40.00,22,11,22,0.00
2013-9-5,78.0,66.0,58.0,-99.9,-99.9,-99.9,0,0,100,0.00,40.00,15,6,26,0.00
2013-9-6,69.0,60.5,53.0,-99.9,-99.9,-99.9,0,0,100,0.00,40.00,10,4,10,0.00
2013-9-7,78.0,61.5,51.0,-99.9,-99.9,-99.9,0,0,100,0.00,40.00,10,3,10,0.00
2013-9-8,74.0,61.4,52.0,-99.9,-99.9,-99.9,0,0,100,0.00,40.00,14,5,19,0.00
2013-9-9,80.0,64.4,51.0,-99.9,-99.9,-99.9,0,0,100,0.00,40.00,10,3,12,0.00
2013-9-10,85.0,67.0,52.0,-99.9,-99.9,-99.9,0,0,100,0.00,40.00,7,2,9,0.00
2013-9-11,91.0,68.3,54.0,-99.9,-99.9,-99.9,0,0,100,0.00,40.00,6,3,9,0.00
2013-9-12,86.0,71.8,58.0,-99.9,-99.9,-99.9,0,0,100,0.00,40.00,15,4,20,0.00
2013-9-13,84.0,72.8,64.0,-99.9,-99.9,-99.9,0,0,100,0.00,40.00,20,6,21,0.00
2013-9-14,84.0,67.8,56.0,-99.9,-99.9,-99.9,0,0,100,0.00,40.00,14,4,17,0.00
2013-9-15,83.0,72.4,62.0,-99.9,-99.9,-99.9,0,0,100,0.00,40.00,37,14,37,0.00
2013-9-16,73.0,62.3,54.0,-99.9,-99.9,-99.9,0,0,100,0.00,40.00,12,6,16,0.00
2013-9-17,62.0,52.8,47.0,-99.9,-99.9,-99.9,0,0,100,0.00,40.00,18,5,21,0.00
2013-9-18,52.0,50.1,45.0,-99.9,-99.9,-99.9,0,0,100,0.00,40.00,15,5,15,0.00
2013-9-19,68.0,52.7,38.0,-99.9,-99.9,-99.9,0,0,100,0.00,40.00,20,7,24,0.00
2013-9-20,76.0,67.3,58.0,-99.9,-99.9,-99.9,0,0,100,0.00,40.00,29,16,34,0.00
2013-9-21,64.0,56.0,53.0,-99.9,-99.9,-99.9,0,0,100,0.00,40.00,21,7,21,0.00
2013-9-22,65.0,54.9,50.0,-99.9,-99.9,-99.9,0,0,100,0.00,40.00,8,4,11,0.00
2013-9-23,65.0,54.8,45.0,-99.9,-99.9,-99.9,0,0,100,0.00,40.00,13,4,19,0.00
2013-9-24,53.0,48.9,43.0,-99.9,-99.9,-99.9,0,0,100,0.00,40.00,11,3,11,0.00
2013-9-25,51.0,44.7,40.0,-99.9,-99.9,-99.9,0,0,100,0.00,40.00,20,8,20,0.00
2013-9-26,53.0,47.0,42.0,-99.9,-99.9,-99.9,0,0,100,0.00,40.00,19,11,20,0.00
2013-9-27,54.0,47.0,40.0,-99.9,-99.9,-99.9,0,0,100,0.00,40.00,15,4,19,0.00
2013-9-28,62.0,51.7,46.0,-99.9,-99.9,-99.9,0,0,100,0.00,40.00,24,16,30,0.00
2013-9-29,63.0,48.7,45.0,-99.9,-99.9,-99.9,0,0,100,0.00,40.00,25,12,25,0.00
2013-9-30,59.0,51.5,43.0,-99.9,-99.9,-99.9,0,0,100,0.00,40.00,32,9,32,0.00
2013-10-1,44.0,40.4,37.0,-99.9,-99.9,-99.9,0,0,100,0.00,40.00,12,6,13,0.00
2013-10-2,49.0,40.0,32.0,-99.9,-99.9,-99.9,0,0,100,0.00,40.00,11,4,13,0.00
2013-10-3,48.0,42.7,38.0,-99.9,-99.9,-99.9,0,0,100,0.00,40.00,20,12,22,0.00
2013-10-4,57.0,44.9,32.0,-99.9,-99.9,-99.9,0,0,100,0.00,40.00,11,3,12,0.00
2013-10-5,62.0,46.2,32.0,-99.9,-99.9,-99.9,0,0,100,0.00,40.00,20,8,32,0.00
2013-10-6,65.0,56.1,47.0,-99.9,-99.9,-99.9,0,0,100,0.00,40.00,32,20,42,0.00
2013-10-7,59.0,49.0,42.0,-99.9,-99.9,-99.9,0,0,100,0.00,40.00,19,4,25,0.00
2013-10-8,51.0,44.8,40.0,-99.9,-99.9,-99.9,0,0,100,0.00,40.00,8,3,15,0.00
2013-10-9,52.0,43.4,38.0,-99.9,-99.9,-99.9,0,0,100,0.00,40.00,14,8,18,0.00
2013-10-10,54.0,44.8,37.0,-99.9,-99.9,-99.9,0,0,100,0.00,40.00,15,4,17,0.00
2013-10-11,54.0,46.6,40.0,-99.9,-99.9,-99.9,0,0,100,0.00,40.00,5,2,8,0.00
2013-10-12,50.0,42.5,39.0,-99.9,-99.9,-99.9,0,0,100,0.00,40.00,10,4,13,0.00
2013-10-13,53.0,45.8,39.0,-99.9,-99.9,-99.9,0,0,100,0.00,40.00,15,10,23,0.00
2013-10-14,54.0,41.3,32.0,-99.9,-99.9,-99.9,0,0,100,0.00,40.00,16,4,19,0.00
2013-10-15,58.0,41.3,29.0,-99.9,-99.9,-99.9,0,0,100,0.00,40.00,6,2,6,0.00
2013-10-16,60.0,46.8,36.0,-99.9,-99.9,-99.9,0,0,100,0.00,40.00,14,4,19,0.00
2013-10-17,58.0,42.8,33.0,-99.9,-99.9,-99.9,0,0,100,0.00,40.00,15,4,15,0.00
2013-10-18,58.0,40.1,31.0,-99.9,-99.9,-99.9,0,0,100,0.00,40.00,6,2,6,0.00
2013-10-19,64.0,42.9,32.0,-99.9,-99.9,-99.9,0,0,100,0.00,40.00,6,2,7,0.00
2013-10-20,63.0,46.8,36.0,-99.9,-99.9,-99.9,0,0,100,0.00,40.00,11,2,11,0.00
2013-10-21,63.0,46.9,36.0,-99.9,-99.9,-99.9,0,0,100,0.00,40.00,6,2,7,0.00
2013-10-22,64.0,46.3,36.0,-99.9,-99.9,-99.9,0,0,100,0.00,40.00,8,1,8,0.00
2013-10-23,62.0,45.0,36.0,-99.9,-99.9,-99.9,0,0,100,0.00,40.00,5,1,7,0.00
2013-10-24,63.0,45.0,34.0,-99.9,-99.9,-99.9,0,0,100,0.00,40.00,6,1,7,0.00
2013-10-25,60.0,44.5,35.0,-99.9,-99.9,-99.9,0,0,100,0.00,40.00,7,1,7,0.00
2013-10-26,59.0,42.7,33.0,-99.9,-99.9,-99.9,0,0,100,0.00,40.00,5,1,6,0.00
2013-10-27,57.0,44.8,37.0,-99.9,-99.9,-99.9,0,0,100,0.00,40.00,16,6,22,0.00
2013-10-28,47.0,41.5,37.0,-99.9,-99.9,-99.9,0,0,100,0.00,40.00,29,18,38,0.00
2013-10-29,48.0,35.7,29.0,-99.9,-99.9,-99.9,0,0,100,0.00,40.00,7,3,19,0.00
2013-10-30,55.0,37.7,25.0,-99.9,-99.9,-99.9,0,0,100,0.00,40.00,8,2,8,0.00
2013-10-31,48.0,43.0,35.0,-99.9,-99.9,-99.9,0,0,100,0.00,40.00,28,8,28,0.00
2013-11-1,49.0,45.2,38.0,-99.9,-99.9,-99.9,0,0,100,0.00,40.00,28,10,28,0.00
2013-11-2,53.0,45.4,38.0,-99.9,-99.9,-99.9,0,0,100,0.00,40.00,35,16,43,0.00
2013-11-3,37.0,36.5,36.0,-99.9,-99.9,-99.9,0,0,100,0.00,40.00,5,4,8,0.00
2013-11-8,49.0,43.9,40.0,-99.9,-99.9,-99.9,0,0,100,0.00,40.00,5,2,6,0.00
2013-11-9,50.0,41.0,32.0,-99.9,-99.9,-99.9,0,0,100,0.00,40.00,35,12,39,0.00
2013-11-10,54.0,49.0,42.0,-99.9,-99.9,-99.9,0,0,100,0.00,40.00,31,19,39,0.00
2013-11-11,56.0,44.8,34.0,-99.9,-99.9,-99.9,0,0,100,0.00,40.00,21,7,34,0.00
2013-11-12,54.0,51.6,46.0,-99.9,-99.9,-99.9,0,0,100,0.00,40.00,30,17,39,0.00
2013-11-13,54.0,45.2,35.0,-99.9,-99.9,-99.9,0,0,100,0.00,40.00,7,2,13,0.00
2013-11-14,44.0,36.5,31.0,-99.9,-99.9,-99.9,0,0,100,0.00,40.00,8,2,10,0.00
2013-11-15,47.0,39.2,31.0,-99.9,-99.9,-99.9,0,0,100,0.00,40.00,12,4,18,0.00
2013-11-16,40.0,36.7,34.0,-99.9,-99.9,-99.9,0,0,100,0.00,40.00,16,7,21,0.00
2013-11-17,46.0,41.1,37.0,-99.9,-99.9,-99.9,0,0,100,0.00,40.00,26,8,26,0.00
2013-11-18,45.0,42.0,39.0,-99.9,-99.9,-99.9,0,0,100,0.00,40.00,29,20,37,0.00
2013-11-19,47.0,44.9,41.0,-99.9,-99.9,-99.9,0,0,100,0.00,40.00,30,14,30,0.00
2013-11-20,38.0,32.3,26.0,-99.9,-99.9,-99.9,0,0,100,0.00,40.00,23,15,24,0.00
2013-11-21,36.0,26.6,20.0,-99.9,-99.9,-99.9,0,0,100,0.00,40.00,16,7,19,0.00
2013-11-22,36.0,23.8,18.0,-99.9,-99.9,-99.9,0,0,100,0.00,40.00,5,1,6,0.00
2013-11-23,37.0,25.2,18.0,-99.9,-99.9,-99.9,0,0,100,0.00,40.00,5,2,5,0.00
2013-11-24,40.0,27.7,19.0,-99.9,-99.9,-99.9,0,0,100,0.00,40.00,5,2,5,0.00
2013-11-25,44.0,31.2,24.0,-99.9,-99.9,-99.9,0,0,100,0.00,40.00,4,1,13,0.00
2013-11-26,47.0,42.2,36.0,-99.9,-99.9,-99.9,0,0,100,0.00,40.00,32,23,40,0.00
2013-11-27,47.0,39.0,29.0,-99.9,-99.9,-99.9,0,0,100,0.00,40.00,24,8,29,0.00
2013-11-28,46.0,33.0,26.0,-99.9,-99.9,-99.9,0,0,100,0.00,40.00,6,1,6,0.00
2013-11-29,44.0,34.3,24.0,-99.9,-99.9,-99.9,0,0,100,0.00,40.00,11,3,17,0.00
2013-11-30,46.0,39.4,34.0,-99.9,-99.9,-99.9,0,0,100,0.00,40.00,25,8,28,0.00
2013-12-1,56.0,46.3,38.0,-99.9,-99.9,-99.9,0,0,100,0.00,40.00,25,14,27,0.00
2013-12-2,51.0,37.0,29.0,-99.9,-99.9,-99.9,0,0,100,0.00,40.00,25,8,26,0.00
2013-12-3,29.0,23.0,20.0,-99.9,-99.9,-99.9,0,0,100,0.00,40.00,22,11,23,0.00
2013-12-4,19.0,14.8,8.0,-99.9,-99.9,-99.9,0,0,100,0.00,40.00,18,9,18,0.00
2013-12-5,17.0,8.0,3.0,-99.9,-99.9,-99.9,0,0,100,0.00,40.00,5,1,5,0.00
2013-12-6,21.0,12.7,7.0,-99.9,-99.9,-99.9,0,0,100,0.00,40.00,12,3,16,0.00
2013-12-7,14.0,9.0,2.0,-99.9,-99.9,-99.9,0,0,100,0.00,40.00,20,13,23,0.00
2013-12-8,7.0,1.0,-4.0,-99.9,-99.9,-99.9,0,0,100,0.00,40.00,5,2,6,0.00
2013-12-9,17.0,11.4,1.0,-99.9,-99.9,-99.9,0,0,100,0.00,40.00,42,25,44,0.00
2013-12-10,25.0,20.2,14.0,-99.9,-99.9,-99.9,0,0,100,0.00,40.00,44,17,44,0.00
2013-12-11,26.0,21.8,18.0,-99.9,-99.9,-99.9,0,0,100,0.00,40.00,41,28,47,0.00
2013-12-12,29.0,25.1,21.0,-99.9,-99.9,-99.9,0,0,100,0.00,40.00,53,31,57,0.00
2013-12-13,37.0,31.2,25.0,-99.9,-99.9,-99.9,0,0,100,0.00,40.00,22,12,28,0.00
2013-12-14,36.0,33.4,32.0,-99.9,-99.9,-99.9,0,0,100,0.00,40.00,42,27,42,0.00
2013-12-15,37.0,34.0,31.0,-99.9,-99.9,-99.9,0,0,100,0.00,40.00,38,30,47,0.00
2013-12-16,39.0,34.1,29.0,-99.9,-99.9,-99.9,0,0,100,0.00,40.00,33,14,37,0.00
2013-12-17,37.0,33.2,29.0,-99.9,-99.9,-99.9,0,0,100,0.00,40.00,60,37,60,0.00
2013-12-18,41.0,36.0,32.0,-99.9,-99.9,-99.9,0,0,100,0.00,40.00,27,13,35,0.00
2013-12-19,31.0,23.9,18.0,-99.9,-99.9,-99.9,0,0,100,0.00,40.00,23,10,23,0.00
2013-12-20,25.0,21.6,18.0,-99.9,-99.9,-99.9,0,0,100,0.00,40.00,39,12,39,0.00
2013-12-21,38.0,31.4,24.0,-99.9,-99.9,-99.9,0,0,100,0.00,40.00,22,5,22,0.00
2013-12-22,45.0,39.3,36.0,-99.9,-99.9,-99.9,0,0,100,0.00,40.00,14,4,14,0.00
2013-12-23,41.0,38.2,32.0,-99.9,-99.9,-99.9,0,0,100,0.00,40.00,31,17,37,0.00
2013-12-24,36.0,33.0,29.0,-99.9,-99.9,-99.9,0,0,100,0.00,40.00,27,12,27,0.00
2013-12-25,33.0,32.1,29.0,-99.9,-99.9,-99.9,0,0,100,0.00,40.00,38,30,46,0.00
2013-12-26,35.0,32.6,31.0,-99.9,-99.9,-99.9,0,0,100,0.00,40.00,47,33,47,0.00
2013-12-27,39.0,33.3,31.0,-99.9,-99.9,-99.9,0,0,100,0.00,40.00,52,32,56,0.00
2013-12-28,49.0,32.4,28.0,-99.9,-99.9,-99.9,0,0,100,0.00,40.00,10,3,10,0.00
2013-12-29,36.0,29.4,21.0,-99.9,-99.9,-99.9,0,0,100,0.00,40.00,26,9,30,0.00
2013-12-30,35.0,32.4,29.0,-99.9,-99.9,-99.9,0,0,100,0.00,40.00,39,20,41,0.00
2013-12-31,39.0,34.8,32.0,-99.9,-99.9,-99.9,0,0,100,0.00,40.00,37,15,39,0.00
2014-1-1,40.0,33.5,30.0,-99.9,-99.9,-99.9,0,0,100,0.00,40.00,14,3,16,0.00
2014-1-2,35.0,33.2,30.0,-99.9,-99.9,-99.9,0,0,100,0.00,40.00,48,30,52,0.00